sensor_id;sensor_type;location;lat;lon;timestamp;temperature;humidity
61201;DHT22;47065;52.898;6.992;2023-06-10T00:01:32;17.90;90.10
61201;DHT22;47065;52.898;6.992;2023-06-10T00:04:02;17.80;90.20
61201;DHT22;47065;52.898;6.992;2023-06-10T00:06:28;17.80;90.50
61201;DHT22;47065;52.898;6.992;2023-06-10T00:09:05;17.80;90.80
61201;DHT22;47065;52.898;6.992;2023-06-10T00:11:32;17.80;91.20
61201;DHT22;47065;52.898;6.992;2023-06-10T00:13:58;17.80;91.20
61201;DHT22;47065;52.898;6.992;2023-06-10T00:16:24;17.70;91.10
61201;DHT22;47065;52.898;6.992;2023-06-10T00:18:50;17.70;91.40
61201;DHT22;47065;52.898;6.992;2023-06-10T00:21:21;17.60;91.70
61201;DHT22;47065;52.898;6.992;2023-06-10T00:23:47;17.60;91.70
61201;DHT22;47065;52.898;6.992;2023-06-10T00:26:14;17.60;91.90
61201;DHT22;47065;52.898;6.992;2023-06-10T00:28:39;17.60;92.10
61201;DHT22;47065;52.898;6.992;2023-06-10T00:31:05;17.50;92.30
61201;DHT22;47065;52.898;6.992;2023-06-10T00:33:31;17.50;92.70
61201;DHT22;47065;52.898;6.992;2023-06-10T00:35:56;17.50;92.70
61201;DHT22;47065;52.898;6.992;2023-06-10T00:38:22;17.50;92.80
61201;DHT22;47065;52.898;6.992;2023-06-10T00:40:48;17.40;93.10
61201;DHT22;47065;52.898;6.992;2023-06-10T00:43:14;17.40;93.20
61201;DHT22;47065;52.898;6.992;2023-06-10T00:45:40;17.40;93.30
61201;DHT22;47065;52.898;6.992;2023-06-10T00:48:06;17.30;93.50
61201;DHT22;47065;52.898;6.992;2023-06-10T00:50:31;17.30;93.60
61201;DHT22;47065;52.898;6.992;2023-06-10T00:52:58;17.30;93.80
61201;DHT22;47065;52.898;6.992;2023-06-10T00:55:24;17.20;94.10
61201;DHT22;47065;52.898;6.992;2023-06-10T00:57:53;17.20;94.50
61201;DHT22;47065;52.898;6.992;2023-06-10T01:00:19;17.10;94.20
61201;DHT22;47065;52.898;6.992;2023-06-10T01:02:45;17.10;94.40
61201;DHT22;47065;52.898;6.992;2023-06-10T01:05:11;17.10;94.50
61201;DHT22;47065;52.898;6.992;2023-06-10T01:07:50;17.00;94.60
61201;DHT22;47065;52.898;6.992;2023-06-10T01:13:11;16.90;95.00
61201;DHT22;47065;52.898;6.992;2023-06-10T01:15:37;16.80;95.20
61201;DHT22;47065;52.898;6.992;2023-06-10T01:18:08;16.80;95.40
61201;DHT22;47065;52.898;6.992;2023-06-10T01:20:36;16.70;95.60
61201;DHT22;47065;52.898;6.992;2023-06-10T01:23:06;16.60;95.80
61201;DHT22;47065;52.898;6.992;2023-06-10T01:25:32;16.60;96.00
61201;DHT22;47065;52.898;6.992;2023-06-10T01:30:29;16.50;96.30
61201;DHT22;47065;52.898;6.992;2023-06-10T01:32:57;16.40;96.40
61201;DHT22;47065;52.898;6.992;2023-06-10T01:35:26;16.40;96.50
61201;DHT22;47065;52.898;6.992;2023-06-10T01:37:54;16.30;96.60
61201;DHT22;47065;52.898;6.992;2023-06-10T01:40:21;16.30;96.80
61201;DHT22;47065;52.898;6.992;2023-06-10T01:42:48;16.30;96.90
61201;DHT22;47065;52.898;6.992;2023-06-10T01:45:14;16.20;97.10
61201;DHT22;47065;52.898;6.992;2023-06-10T01:47:40;16.20;97.40
61201;DHT22;47065;52.898;6.992;2023-06-10T01:50:06;16.20;97.50
61201;DHT22;47065;52.898;6.992;2023-06-10T01:52:32;16.10;97.60
61201;DHT22;47065;52.898;6.992;2023-06-10T01:54:57;16.10;97.70
61201;DHT22;47065;52.898;6.992;2023-06-10T01:57:23;16.00;97.80
61201;DHT22;47065;52.898;6.992;2023-06-10T01:59:48;16.00;97.90
61201;DHT22;47065;52.898;6.992;2023-06-10T02:02:14;16.00;98.20
61201;DHT22;47065;52.898;6.992;2023-06-10T02:04:40;15.90;98.20
61201;DHT22;47065;52.898;6.992;2023-06-10T02:07:05;15.90;98.30
61201;DHT22;47065;52.898;6.992;2023-06-10T02:09:31;15.80;98.50
61201;DHT22;47065;52.898;6.992;2023-06-10T02:12:01;15.80;98.70
61201;DHT22;47065;52.898;6.992;2023-06-10T02:14:27;15.80;98.90
61201;DHT22;47065;52.898;6.992;2023-06-10T02:16:53;15.70;99.10
61201;DHT22;47065;52.898;6.992;2023-06-10T02:19:22;15.70;99.20
61201;DHT22;47065;52.898;6.992;2023-06-10T02:21:48;15.70;99.50
61201;DHT22;47065;52.898;6.992;2023-06-10T02:24:13;15.60;99.60
61201;DHT22;47065;52.898;6.992;2023-06-10T02:26:39;15.50;99.80
61201;DHT22;47065;52.898;6.992;2023-06-10T02:29:05;15.50;99.90
61201;DHT22;47065;52.898;6.992;2023-06-10T02:31:31;15.50;99.90
61201;DHT22;47065;52.898;6.992;2023-06-10T02:33:57;15.40;99.90
61201;DHT22;47065;52.898;6.992;2023-06-10T02:36:22;15.40;99.90
61201;DHT22;47065;52.898;6.992;2023-06-10T02:38:49;15.40;99.90
61201;DHT22;47065;52.898;6.992;2023-06-10T02:41:15;15.30;99.90
61201;DHT22;47065;52.898;6.992;2023-06-10T02:43:41;15.30;99.90
61201;DHT22;47065;52.898;6.992;2023-06-10T02:46:07;15.30;99.90
61201;DHT22;47065;52.898;6.992;2023-06-10T02:48:41;15.20;99.90
61201;DHT22;47065;52.898;6.992;2023-06-10T02:51:07;15.20;99.90
61201;DHT22;47065;52.898;6.992;2023-06-10T02:53:32;15.20;99.90
61201;DHT22;47065;52.898;6.992;2023-06-10T02:55:58;15.20;99.90
61201;DHT22;47065;52.898;6.992;2023-06-10T02:58:23;15.10;99.90
61201;DHT22;47065;52.898;6.992;2023-06-10T03:00:49;15.10;99.90
61201;DHT22;47065;52.898;6.992;2023-06-10T03:03:15;15.00;99.90
61201;DHT22;47065;52.898;6.992;2023-06-10T03:05:41;15.00;99.90
61201;DHT22;47065;52.898;6.992;2023-06-10T03:08:07;15.00;99.90
61201;DHT22;47065;52.898;6.992;2023-06-10T03:10:32;14.90;99.90
61201;DHT22;47065;52.898;6.992;2023-06-10T03:12:58;14.90;99.90
61201;DHT22;47065;52.898;6.992;2023-06-10T03:15:24;14.90;99.90
61201;DHT22;47065;52.898;6.992;2023-06-10T03:17:49;14.80;99.90
61201;DHT22;47065;52.898;6.992;2023-06-10T03:20:15;14.80;99.90
61201;DHT22;47065;52.898;6.992;2023-06-10T03:22:42;14.80;99.90
61201;DHT22;47065;52.898;6.992;2023-06-10T03:25:08;14.70;99.90
61201;DHT22;47065;52.898;6.992;2023-06-10T03:27:40;14.70;99.90
61201;DHT22;47065;52.898;6.992;2023-06-10T03:30:06;14.70;99.90
61201;DHT22;47065;52.898;6.992;2023-06-10T03:32:32;14.70;99.90
61201;DHT22;47065;52.898;6.992;2023-06-10T03:34:57;14.60;99.90
61201;DHT22;47065;52.898;6.992;2023-06-10T03:37:24;14.60;99.90
61201;DHT22;47065;52.898;6.992;2023-06-10T03:39:50;14.60;99.90
61201;DHT22;47065;52.898;6.992;2023-06-10T03:42:16;14.60;99.90
61201;DHT22;47065;52.898;6.992;2023-06-10T03:44:41;14.60;99.90
61201;DHT22;47065;52.898;6.992;2023-06-10T03:47:07;14.50;99.90
61201;DHT22;47065;52.898;6.992;2023-06-10T03:49:32;14.50;99.90
61201;DHT22;47065;52.898;6.992;2023-06-10T03:51:58;14.50;99.90
61201;DHT22;47065;52.898;6.992;2023-06-10T03:54:24;14.50;99.90
61201;DHT22;47065;52.898;6.992;2023-06-10T03:56:49;14.50;99.90
61201;DHT22;47065;52.898;6.992;2023-06-10T03:59:16;14.40;99.90
61201;DHT22;47065;52.898;6.992;2023-06-10T04:01:41;14.40;99.90
61201;DHT22;47065;52.898;6.992;2023-06-10T04:04:09;14.40;99.90
61201;DHT22;47065;52.898;6.992;2023-06-10T04:06:34;14.40;99.90
61201;DHT22;47065;52.898;6.992;2023-06-10T04:09:00;14.40;99.90
61201;DHT22;47065;52.898;6.992;2023-06-10T04:11:26;14.40;99.90
61201;DHT22;47065;52.898;6.992;2023-06-10T04:13:52;14.40;99.90
61201;DHT22;47065;52.898;6.992;2023-06-10T04:16:17;14.40;99.90
61201;DHT22;47065;52.898;6.992;2023-06-10T04:18:43;14.40;99.90
61201;DHT22;47065;52.898;6.992;2023-06-10T04:21:09;14.40;99.90
61201;DHT22;47065;52.898;6.992;2023-06-10T04:23:35;14.30;99.90
61201;DHT22;47065;52.898;6.992;2023-06-10T04:26:02;14.30;99.90
61201;DHT22;47065;52.898;6.992;2023-06-10T04:28:28;14.30;99.90
61201;DHT22;47065;52.898;6.992;2023-06-10T04:30:54;14.30;99.90
61201;DHT22;47065;52.898;6.992;2023-06-10T04:33:19;14.40;99.90
61201;DHT22;47065;52.898;6.992;2023-06-10T04:35:45;14.40;99.90
61201;DHT22;47065;52.898;6.992;2023-06-10T04:38:13;14.40;99.90
61201;DHT22;47065;52.898;6.992;2023-06-10T04:40:39;14.40;99.90
61201;DHT22;47065;52.898;6.992;2023-06-10T04:43:05;14.40;99.90
61201;DHT22;47065;52.898;6.992;2023-06-10T04:45:31;14.40;99.90
61201;DHT22;47065;52.898;6.992;2023-06-10T04:47:56;14.40;99.90
61201;DHT22;47065;52.898;6.992;2023-06-10T04:50:23;14.50;99.90
61201;DHT22;47065;52.898;6.992;2023-06-10T04:52:49;14.50;99.90
61201;DHT22;47065;52.898;6.992;2023-06-10T04:55:15;14.50;99.90
61201;DHT22;47065;52.898;6.992;2023-06-10T04:57:41;14.50;99.90
61201;DHT22;47065;52.898;6.992;2023-06-10T05:00:07;14.50;99.90
61201;DHT22;47065;52.898;6.992;2023-06-10T05:02:34;14.50;99.90
61201;DHT22;47065;52.898;6.992;2023-06-10T05:04:59;14.60;99.90
61201;DHT22;47065;52.898;6.992;2023-06-10T05:07:25;14.60;99.90
61201;DHT22;47065;52.898;6.992;2023-06-10T05:09:51;14.60;99.90
61201;DHT22;47065;52.898;6.992;2023-06-10T05:12:17;14.60;99.90
61201;DHT22;47065;52.898;6.992;2023-06-10T05:14:42;14.70;99.90
61201;DHT22;47065;52.898;6.992;2023-06-10T05:17:10;14.70;99.90
61201;DHT22;47065;52.898;6.992;2023-06-10T05:19:35;14.80;99.90
61201;DHT22;47065;52.898;6.992;2023-06-10T05:22:03;14.80;99.90
61201;DHT22;47065;52.898;6.992;2023-06-10T05:24:28;14.80;99.90
61201;DHT22;47065;52.898;6.992;2023-06-10T05:26:54;14.90;99.90
61201;DHT22;47065;52.898;6.992;2023-06-10T05:29:19;14.90;99.90
61201;DHT22;47065;52.898;6.992;2023-06-10T05:31:45;15.00;99.90
61201;DHT22;47065;52.898;6.992;2023-06-10T05:34:11;15.00;99.90
61201;DHT22;47065;52.898;6.992;2023-06-10T05:36:37;15.00;99.90
61201;DHT22;47065;52.898;6.992;2023-06-10T05:39:02;15.10;99.90
61201;DHT22;47065;52.898;6.992;2023-06-10T05:41:28;15.10;99.90
61201;DHT22;47065;52.898;6.992;2023-06-10T05:43:54;15.20;99.90
61201;DHT22;47065;52.898;6.992;2023-06-10T05:46:20;15.20;99.90
61201;DHT22;47065;52.898;6.992;2023-06-10T05:48:46;15.30;99.90
61201;DHT22;47065;52.898;6.992;2023-06-10T05:51:14;15.30;99.90
61201;DHT22;47065;52.898;6.992;2023-06-10T05:53:40;15.40;99.90
61201;DHT22;47065;52.898;6.992;2023-06-10T05:56:06;15.40;99.90
61201;DHT22;47065;52.898;6.992;2023-06-10T05:58:31;15.50;99.90
61201;DHT22;47065;52.898;6.992;2023-06-10T06:00:57;15.50;99.90
61201;DHT22;47065;52.898;6.992;2023-06-10T06:03:22;15.60;99.90
61201;DHT22;47065;52.898;6.992;2023-06-10T06:05:48;15.60;99.90
61201;DHT22;47065;52.898;6.992;2023-06-10T06:08:14;15.80;99.90
61201;DHT22;47065;52.898;6.992;2023-06-10T06:10:42;15.80;99.90
61201;DHT22;47065;52.898;6.992;2023-06-10T06:13:08;15.90;99.90
61201;DHT22;47065;52.898;6.992;2023-06-10T06:15:34;16.00;99.90
61201;DHT22;47065;52.898;6.992;2023-06-10T06:17:59;16.10;99.90
61201;DHT22;47065;52.898;6.992;2023-06-10T06:20:25;16.10;99.90
61201;DHT22;47065;52.898;6.992;2023-06-10T06:22:51;16.10;99.90
61201;DHT22;47065;52.898;6.992;2023-06-10T06:25:16;16.20;99.90
61201;DHT22;47065;52.898;6.992;2023-06-10T06:27:42;16.30;99.90
61201;DHT22;47065;52.898;6.992;2023-06-10T06:30:08;16.30;99.90
61201;DHT22;47065;52.898;6.992;2023-06-10T06:32:33;16.40;99.90
61201;DHT22;47065;52.898;6.992;2023-06-10T06:34:59;16.40;99.90
61201;DHT22;47065;52.898;6.992;2023-06-10T06:37:25;16.50;99.90
61201;DHT22;47065;52.898;6.992;2023-06-10T06:39:52;16.50;99.90
61201;DHT22;47065;52.898;6.992;2023-06-10T06:42:19;16.60;99.90
61201;DHT22;47065;52.898;6.992;2023-06-10T06:44:45;16.60;99.90
61201;DHT22;47065;52.898;6.992;2023-06-10T06:47:10;16.70;99.90
61201;DHT22;47065;52.898;6.992;2023-06-10T06:49:36;16.80;99.90
61201;DHT22;47065;52.898;6.992;2023-06-10T06:52:02;16.80;99.90
61201;DHT22;47065;52.898;6.992;2023-06-10T06:54:28;16.80;99.90
61201;DHT22;47065;52.898;6.992;2023-06-10T06:56:54;16.90;99.90
61201;DHT22;47065;52.898;6.992;2023-06-10T06:59:20;16.90;99.90
61201;DHT22;47065;52.898;6.992;2023-06-10T07:01:46;17.00;99.90
61201;DHT22;47065;52.898;6.992;2023-06-10T07:04:14;17.00;99.90
61201;DHT22;47065;52.898;6.992;2023-06-10T07:06:40;17.10;99.90
61201;DHT22;47065;52.898;6.992;2023-06-10T07:09:06;17.20;99.90
61201;DHT22;47065;52.898;6.992;2023-06-10T07:11:32;17.20;99.90
61201;DHT22;47065;52.898;6.992;2023-06-10T07:13:58;17.30;99.90
61201;DHT22;47065;52.898;6.992;2023-06-10T07:16:24;17.30;99.90
61201;DHT22;47065;52.898;6.992;2023-06-10T07:18:49;17.40;99.90
61201;DHT22;47065;52.898;6.992;2023-06-10T07:21:15;17.50;99.90
61201;DHT22;47065;52.898;6.992;2023-06-10T07:23:44;17.50;99.90
61201;DHT22;47065;52.898;6.992;2023-06-10T07:26:10;17.60;99.90
61201;DHT22;47065;52.898;6.992;2023-06-10T07:28:37;17.80;99.90
61201;DHT22;47065;52.898;6.992;2023-06-10T07:31:03;17.80;99.90
61201;DHT22;47065;52.898;6.992;2023-06-10T07:33:29;18.00;99.90
61201;DHT22;47065;52.898;6.992;2023-06-10T07:35:54;18.50;99.90
61201;DHT22;47065;52.898;6.992;2023-06-10T07:38:20;18.90;99.90
61201;DHT22;47065;52.898;6.992;2023-06-10T07:40:46;19.40;99.90
61201;DHT22;47065;52.898;6.992;2023-06-10T07:43:12;19.60;99.90
61201;DHT22;47065;52.898;6.992;2023-06-10T07:45:40;19.90;99.90
61201;DHT22;47065;52.898;6.992;2023-06-10T07:48:06;20.00;99.90
61201;DHT22;47065;52.898;6.992;2023-06-10T07:50:31;20.20;99.90
61201;DHT22;47065;52.898;6.992;2023-06-10T07:52:57;20.30;99.90
61201;DHT22;47065;52.898;6.992;2023-06-10T07:55:23;20.50;99.90
61201;DHT22;47065;52.898;6.992;2023-06-10T07:57:51;20.70;99.90
61201;DHT22;47065;52.898;6.992;2023-06-10T08:00:17;20.90;99.90
61201;DHT22;47065;52.898;6.992;2023-06-10T08:02:43;21.00;99.90
61201;DHT22;47065;52.898;6.992;2023-06-10T08:05:09;21.00;99.90
61201;DHT22;47065;52.898;6.992;2023-06-10T08:07:35;20.90;99.90
61201;DHT22;47065;52.898;6.992;2023-06-10T08:10:01;20.80;99.90
61201;DHT22;47065;52.898;6.992;2023-06-10T08:12:27;20.80;99.90
61201;DHT22;47065;52.898;6.992;2023-06-10T08:14:52;20.80;99.90
61201;DHT22;47065;52.898;6.992;2023-06-10T08:17:19;20.70;99.90
61201;DHT22;47065;52.898;6.992;2023-06-10T08:19:44;20.80;99.90
61201;DHT22;47065;52.898;6.992;2023-06-10T08:22:10;21.00;99.90
61201;DHT22;47065;52.898;6.992;2023-06-10T08:24:36;21.40;99.90
61201;DHT22;47065;52.898;6.992;2023-06-10T08:27:04;21.70;99.90
61201;DHT22;47065;52.898;6.992;2023-06-10T08:29:33;22.10;99.90
61201;DHT22;47065;52.898;6.992;2023-06-10T08:31:59;22.50;99.90
61201;DHT22;47065;52.898;6.992;2023-06-10T08:34:25;22.80;99.90
61201;DHT22;47065;52.898;6.992;2023-06-10T08:36:51;23.00;99.50
61201;DHT22;47065;52.898;6.992;2023-06-10T08:39:19;23.10;98.70
61201;DHT22;47065;52.898;6.992;2023-06-10T08:41:51;23.40;98.10
61201;DHT22;47065;52.898;6.992;2023-06-10T08:44:34;23.90;98.20
61201;DHT22;47065;52.898;6.992;2023-06-10T08:47:15;24.70;96.80
61201;DHT22;47065;52.898;6.992;2023-06-10T08:49:46;25.90;94.60
61201;DHT22;47065;52.898;6.992;2023-06-10T08:52:21;27.00;92.00
61201;DHT22;47065;52.898;6.992;2023-06-10T08:54:57;28.00;86.00
61201;DHT22;47065;52.898;6.992;2023-06-10T08:57:31;28.80;82.10
61201;DHT22;47065;52.898;6.992;2023-06-10T09:00:00;29.40;78.50
61201;DHT22;47065;52.898;6.992;2023-06-10T09:02:29;29.70;75.60
61201;DHT22;47065;52.898;6.992;2023-06-10T09:05:06;30.10;73.50
61201;DHT22;47065;52.898;6.992;2023-06-10T09:07:37;30.40;69.60
61201;DHT22;47065;52.898;6.992;2023-06-10T09:10:07;30.60;69.10
61201;DHT22;47065;52.898;6.992;2023-06-10T09:12:36;31.20;64.40
61201;DHT22;47065;52.898;6.992;2023-06-10T09:15:10;31.60;62.90
61201;DHT22;47065;52.898;6.992;2023-06-10T09:18:14;31.90;60.50
61201;DHT22;47065;52.898;6.992;2023-06-10T09:20:42;32.10;57.70
61201;DHT22;47065;52.898;6.992;2023-06-10T09:23:08;32.40;58.10
61201;DHT22;47065;52.898;6.992;2023-06-10T09:25:38;32.30;57.00
61201;DHT22;47065;52.898;6.992;2023-06-10T09:28:15;32.40;55.90
61201;DHT22;47065;52.898;6.992;2023-06-10T09:30:44;32.50;54.10
61201;DHT22;47065;52.898;6.992;2023-06-10T09:33:12;32.70;54.50
61201;DHT22;47065;52.898;6.992;2023-06-10T09:35:46;33.10;54.50
61201;DHT22;47065;52.898;6.992;2023-06-10T09:38:13;33.40;53.80
61201;DHT22;47065;52.898;6.992;2023-06-10T09:40:53;33.50;52.40
61201;DHT22;47065;52.898;6.992;2023-06-10T09:43:19;33.50;50.40
61201;DHT22;47065;52.898;6.992;2023-06-10T09:45:48;33.40;52.20
61201;DHT22;47065;52.898;6.992;2023-06-10T09:48:14;33.40;52.50
61201;DHT22;47065;52.898;6.992;2023-06-10T09:50:46;33.30;51.20
61201;DHT22;47065;52.898;6.992;2023-06-10T09:53:12;33.30;51.50
61201;DHT22;47065;52.898;6.992;2023-06-10T09:55:38;33.40;53.20
61201;DHT22;47065;52.898;6.992;2023-06-10T09:58:04;33.60;51.40
61201;DHT22;47065;52.898;6.992;2023-06-10T10:00:35;33.70;50.30
61201;DHT22;47065;52.898;6.992;2023-06-10T10:03:01;33.70;50.50
61201;DHT22;47065;52.898;6.992;2023-06-10T10:05:27;33.80;50.50
61201;DHT22;47065;52.898;6.992;2023-06-10T10:07:53;33.90;49.90
61201;DHT22;47065;52.898;6.992;2023-06-10T10:10:21;33.90;50.80
61201;DHT22;47065;52.898;6.992;2023-06-10T10:12:50;34.00;50.70
61201;DHT22;47065;52.898;6.992;2023-06-10T10:15:17;34.10;49.90
61201;DHT22;47065;52.898;6.992;2023-06-10T10:17:53;34.20;48.30
61201;DHT22;47065;52.898;6.992;2023-06-10T10:20:26;34.10;48.70
61201;DHT22;47065;52.898;6.992;2023-06-10T10:22:52;34.10;48.10
61201;DHT22;47065;52.898;6.992;2023-06-10T10:25:25;33.90;48.30
61201;DHT22;47065;52.898;6.992;2023-06-10T10:28:09;33.80;46.80
61201;DHT22;47065;52.898;6.992;2023-06-10T10:30:44;33.60;48.30
61201;DHT22;47065;52.898;6.992;2023-06-10T10:33:46;33.40;48.00
61201;DHT22;47065;52.898;6.992;2023-06-10T10:36:14;33.10;47.10
61201;DHT22;47065;52.898;6.992;2023-06-10T10:38:40;32.80;47.50
61201;DHT22;47065;52.898;6.992;2023-06-10T10:41:07;32.60;48.00
61201;DHT22;47065;52.898;6.992;2023-06-10T10:43:34;32.40;49.00
61201;DHT22;47065;52.898;6.992;2023-06-10T10:46:01;32.20;48.10
61201;DHT22;47065;52.898;6.992;2023-06-10T10:48:35;32.00;48.00
61201;DHT22;47065;52.898;6.992;2023-06-10T10:51:02;31.90;48.30
61201;DHT22;47065;52.898;6.992;2023-06-10T10:53:29;31.80;48.30
61201;DHT22;47065;52.898;6.992;2023-06-10T10:56:15;31.80;45.80
61201;DHT22;47065;52.898;6.992;2023-06-10T10:59:03;31.70;46.50
61201;DHT22;47065;52.898;6.992;2023-06-10T11:01:42;31.40;50.40
61201;DHT22;47065;52.898;6.992;2023-06-10T11:04:11;31.20;49.00
61201;DHT22;47065;52.898;6.992;2023-06-10T11:06:37;30.90;49.40
61201;DHT22;47065;52.898;6.992;2023-06-10T11:09:26;30.60;50.50
61201;DHT22;47065;52.898;6.992;2023-06-10T11:11:59;30.40;50.40
61201;DHT22;47065;52.898;6.992;2023-06-10T11:14:29;30.30;50.20
61201;DHT22;47065;52.898;6.992;2023-06-10T11:16:59;30.20;49.90
61201;DHT22;47065;52.898;6.992;2023-06-10T11:19:37;30.00;50.10
61201;DHT22;47065;52.898;6.992;2023-06-10T11:22:07;29.90;51.00
61201;DHT22;47065;52.898;6.992;2023-06-10T11:24:33;29.80;50.70
61201;DHT22;47065;52.898;6.992;2023-06-10T11:27:21;29.80;49.60
61201;DHT22;47065;52.898;6.992;2023-06-10T11:32:30;29.80;51.70
61201;DHT22;47065;52.898;6.992;2023-06-10T11:34:57;30.00;51.40
61201;DHT22;47065;52.898;6.992;2023-06-10T11:37:23;30.10;49.70
61201;DHT22;47065;52.898;6.992;2023-06-10T11:39:55;30.20;48.20
61201;DHT22;47065;52.898;6.992;2023-06-10T11:42:23;30.20;48.30
61201;DHT22;47065;52.898;6.992;2023-06-10T11:44:50;30.20;49.00
61201;DHT22;47065;52.898;6.992;2023-06-10T11:47:16;30.20;50.00
61201;DHT22;47065;52.898;6.992;2023-06-10T11:49:42;30.20;49.90
61201;DHT22;47065;52.898;6.992;2023-06-10T11:52:08;30.20;50.40
61201;DHT22;47065;52.898;6.992;2023-06-10T11:54:34;30.20;50.90
61201;DHT22;47065;52.898;6.992;2023-06-10T11:57:00;30.10;50.40
61201;DHT22;47065;52.898;6.992;2023-06-10T11:59:29;30.00;49.60
61201;DHT22;47065;52.898;6.992;2023-06-10T12:01:55;29.90;47.40
61201;DHT22;47065;52.898;6.992;2023-06-10T12:04:24;29.90;48.20
61201;DHT22;47065;52.898;6.992;2023-06-10T12:06:52;29.90;47.90
61201;DHT22;47065;52.898;6.992;2023-06-10T12:09:29;29.90;48.50
61201;DHT22;47065;52.898;6.992;2023-06-10T12:12:03;30.10;47.70
61201;DHT22;47065;52.898;6.992;2023-06-10T12:14:55;30.20;48.30
61201;DHT22;47065;52.898;6.992;2023-06-10T12:19:55;30.20;45.60
61201;DHT22;47065;52.898;6.992;2023-06-10T12:22:21;30.20;45.60
61201;DHT22;47065;52.898;6.992;2023-06-10T12:25:00;30.20;46.50
61201;DHT22;47065;52.898;6.992;2023-06-10T12:27:28;30.20;48.40
61201;DHT22;47065;52.898;6.992;2023-06-10T12:29:55;30.10;49.00
61201;DHT22;47065;52.898;6.992;2023-06-10T12:32:21;30.20;47.30
61201;DHT22;47065;52.898;6.992;2023-06-10T12:35:02;30.20;46.10
61201;DHT22;47065;52.898;6.992;2023-06-10T12:37:29;30.20;46.00
61201;DHT22;47065;52.898;6.992;2023-06-10T12:39:55;30.30;45.50
61201;DHT22;47065;52.898;6.992;2023-06-10T12:42:25;30.50;45.70
61201;DHT22;47065;52.898;6.992;2023-06-10T12:44:54;30.60;46.60
61201;DHT22;47065;52.898;6.992;2023-06-10T12:47:21;30.70;46.00
61201;DHT22;47065;52.898;6.992;2023-06-10T12:49:54;30.80;46.00
61201;DHT22;47065;52.898;6.992;2023-06-10T12:52:19;30.80;46.60
61201;DHT22;47065;52.898;6.992;2023-06-10T12:54:45;30.90;47.00
61201;DHT22;47065;52.898;6.992;2023-06-10T12:57:11;30.80;46.40
61201;DHT22;47065;52.898;6.992;2023-06-10T12:59:37;30.80;46.90
61201;DHT22;47065;52.898;6.992;2023-06-10T13:02:02;30.80;47.00
61201;DHT22;47065;52.898;6.992;2023-06-10T13:04:28;30.70;47.30
61201;DHT22;47065;52.898;6.992;2023-06-10T13:06:54;30.60;47.00
61201;DHT22;47065;52.898;6.992;2023-06-10T13:09:19;30.50;44.20
61201;DHT22;47065;52.898;6.992;2023-06-10T13:11:45;30.40;44.40
61201;DHT22;47065;52.898;6.992;2023-06-10T13:14:11;30.30;44.20
61201;DHT22;47065;52.898;6.992;2023-06-10T13:16:37;30.30;43.70
61201;DHT22;47065;52.898;6.992;2023-06-10T13:19:04;30.40;43.60
61201;DHT22;47065;52.898;6.992;2023-06-10T13:21:31;30.50;43.40
61201;DHT22;47065;52.898;6.992;2023-06-10T13:23:57;30.50;42.90
61201;DHT22;47065;52.898;6.992;2023-06-10T13:26:23;30.50;43.50
61201;DHT22;47065;52.898;6.992;2023-06-10T13:28:49;30.50;43.30
61201;DHT22;47065;52.898;6.992;2023-06-10T13:31:14;30.60;43.00
61201;DHT22;47065;52.898;6.992;2023-06-10T13:33:40;30.60;43.20
61201;DHT22;47065;52.898;6.992;2023-06-10T13:36:08;30.60;42.80
61201;DHT22;47065;52.898;6.992;2023-06-10T13:38:34;30.50;42.60
61201;DHT22;47065;52.898;6.992;2023-06-10T13:41:00;30.40;43.40
61201;DHT22;47065;52.898;6.992;2023-06-10T13:43:26;30.40;43.60
61201;DHT22;47065;52.898;6.992;2023-06-10T13:45:52;30.60;43.70
61201;DHT22;47065;52.898;6.992;2023-06-10T13:48:17;30.70;43.50
61201;DHT22;47065;52.898;6.992;2023-06-10T13:50:43;30.70;44.00
61201;DHT22;47065;52.898;6.992;2023-06-10T13:53:11;30.80;43.90
61201;DHT22;47065;52.898;6.992;2023-06-10T13:55:38;30.80;42.00
61201;DHT22;47065;52.898;6.992;2023-06-10T13:58:04;30.80;41.90
61201;DHT22;47065;52.898;6.992;2023-06-10T14:00:30;30.60;42.60
61201;DHT22;47065;52.898;6.992;2023-06-10T14:02:56;30.50;43.50
61201;DHT22;47065;52.898;6.992;2023-06-10T14:05:22;30.30;43.70
61201;DHT22;47065;52.898;6.992;2023-06-10T14:07:48;30.30;44.10
61201;DHT22;47065;52.898;6.992;2023-06-10T14:10:13;30.20;43.50
61201;DHT22;47065;52.898;6.992;2023-06-10T14:12:39;30.20;44.10
61201;DHT22;47065;52.898;6.992;2023-06-10T14:15:05;30.30;44.20
61201;DHT22;47065;52.898;6.992;2023-06-10T14:17:31;30.40;42.70
61201;DHT22;47065;52.898;6.992;2023-06-10T14:19:56;30.50;42.80
61201;DHT22;47065;52.898;6.992;2023-06-10T14:22:22;30.50;42.80
61201;DHT22;47065;52.898;6.992;2023-06-10T14:24:47;30.60;43.10
61201;DHT22;47065;52.898;6.992;2023-06-10T14:27:13;30.50;43.40
61201;DHT22;47065;52.898;6.992;2023-06-10T14:29:39;30.50;42.60
61201;DHT22;47065;52.898;6.992;2023-06-10T14:32:04;30.40;42.30
61201;DHT22;47065;52.898;6.992;2023-06-10T14:34:30;30.30;43.70
61201;DHT22;47065;52.898;6.992;2023-06-10T14:36:59;30.40;44.30
61201;DHT22;47065;52.898;6.992;2023-06-10T14:39:25;30.50;43.50
61201;DHT22;47065;52.898;6.992;2023-06-10T14:41:51;30.60;44.50
61201;DHT22;47065;52.898;6.992;2023-06-10T14:44:19;30.70;44.20
61201;DHT22;47065;52.898;6.992;2023-06-10T14:46:45;30.80;44.00
61201;DHT22;47065;52.898;6.992;2023-06-10T14:49:10;30.70;43.80
61201;DHT22;47065;52.898;6.992;2023-06-10T14:51:36;30.60;43.90
61201;DHT22;47065;52.898;6.992;2023-06-10T14:54:02;30.50;44.00
61201;DHT22;47065;52.898;6.992;2023-06-10T14:56:27;30.40;43.90
61201;DHT22;47065;52.898;6.992;2023-06-10T14:58:53;30.40;43.90
61201;DHT22;47065;52.898;6.992;2023-06-10T15:01:18;30.50;43.70
61201;DHT22;47065;52.898;6.992;2023-06-10T15:03:44;30.50;43.50
61201;DHT22;47065;52.898;6.992;2023-06-10T15:06:10;30.60;43.30
61201;DHT22;47065;52.898;6.992;2023-06-10T15:08:35;30.60;43.40
61201;DHT22;47065;52.898;6.992;2023-06-10T15:11:01;30.50;43.70
61201;DHT22;47065;52.898;6.992;2023-06-10T15:13:27;30.50;43.90
61201;DHT22;47065;52.898;6.992;2023-06-10T15:15:53;30.40;43.90
61201;DHT22;47065;52.898;6.992;2023-06-10T15:18:19;30.30;44.60
61201;DHT22;47065;52.898;6.992;2023-06-10T15:20:44;30.30;43.60
61201;DHT22;47065;52.898;6.992;2023-06-10T15:23:10;30.40;44.00
61201;DHT22;47065;52.898;6.992;2023-06-10T15:25:35;30.50;43.80
61201;DHT22;47065;52.898;6.992;2023-06-10T15:28:01;30.50;44.10
61201;DHT22;47065;52.898;6.992;2023-06-10T15:30:27;30.60;43.90
61201;DHT22;47065;52.898;6.992;2023-06-10T15:32:52;30.50;44.20
61201;DHT22;47065;52.898;6.992;2023-06-10T15:35:18;30.40;43.50
61201;DHT22;47065;52.898;6.992;2023-06-10T15:37:44;30.20;43.10
61201;DHT22;47065;52.898;6.992;2023-06-10T15:40:09;30.00;43.60
61201;DHT22;47065;52.898;6.992;2023-06-10T15:42:35;30.10;44.10